Flight Track Log - Related Links

Times and Time Zones

All times are in EDT time to prevent confusion due to time zone crossing. See the SKW6534 flight status page for this flight to view local times or setup timezone preferences in your user account.

Time Position Orientation Groundspeed Altitude Reporting Facility
EDT Latitude Longitude Course Direction KTS MPH feet Rate Location/Type
Tue 03:54:56 PM 43.4431 -111.9178 104° East 254 292 11,200  Level Salt Lake Center
Tue 03:55:00 PM 43.2425 -111.5639 127° Southeast  Level FlightAware Approximate
Tue 03:55:58 PM 43.3964 -111.8322 127° Southeast 280 322 13,900  Level Salt Lake Center
Tue 03:56:00 PM 43.1792 -111.4480 127° Southeast  Level FlightAware Approximate
Tue 03:57:00 PM 43.1161 -111.3320 122° Southeast  Level FlightAware Approximate
Tue 03:57:00 PM 43.3342 -111.7189 127° Southeast 318 366 16,200  Level Salt Lake Center
Tue 03:58:00 PM 43.0603 -111.2093 122° Southeast  Level FlightAware Approximate
Tue 03:58:01 PM 43.2772 -111.6167 127° Southeast 339 390 17,700  Level Salt Lake Center
Tue 03:59:00 PM 42.9983 -111.0928 130° Southeast  Level FlightAware Approximate
Tue 03:59:03 PM 43.2072 -111.4867 126° Southeast 371 427 19,700  Level Salt Lake Center
Tue 04:00:05 PM 43.1447 -111.3703 126° Southeast 391 450 21,400 1,805 Climbing Salt Lake Center
Tue 04:01:06 PM 43.0711 -111.2328 126° Southeast 401 461 23,400 1,707 Climbing Salt Lake Center
Tue 04:02:08 PM 43.0064 -111.1144 127° Southeast 406 467 24,900 1,210 Climbing Salt Lake Center
Tue 04:03:10 PM 42.9389 -110.9919 127° Southeast 419 482 25,900 1,024 Climbing Salt Lake Center
Tue 04:04:11 PM 42.8578 -110.8431 127° Southeast 435 501 27,000 537 Climbing Salt Lake Center
Tue 04:05:13 PM 42.7836 -110.7131 128° Southeast 452 520 27,000  Level Salt Lake Center
Tue 04:06:14 PM 42.6983 -110.5611 127° Southeast 478 550 27,000  Level Salt Lake Center
Tue 04:07:16 PM 42.6078 -110.3964 127° Southeast 487 560 27,000  Level Salt Lake Center
Tue 04:08:18 PM 42.5283 -110.2556 127° Southeast 492 566 27,000  Level Salt Lake Center
Tue 04:09:19 PM 42.4486 -110.1139 127° Southeast 494 568 27,000  Level Salt Lake Center
Tue 04:10:21 PM 42.3553 -109.9500 128° Southeast 493 567 27,000  Level Salt Lake Center
Tue 04:11:23 PM 42.2744 -109.8092 128° Southeast 495 570 27,000  Level Salt Lake Center
Tue 04:12:24 PM 42.1808 -109.6450 128° Southeast 495 570 27,000  Level Salt Lake Center
Tue 04:13:26 PM 42.0994 -109.5042 128° Southeast 496 571 27,000  Level Salt Lake Center
Tue 04:14:28 PM 42.0044 -109.3397 128° Southeast 497 572 27,000  Level Salt Lake Center
Tue 04:15:29 PM 41.9231 -109.1992 128° Southeast 497 572 27,000  Level Salt Lake Center
Tue 04:16:31 PM 41.8411 -109.0589 128° Southeast 496 571 27,000  Level Salt Lake Center
Tue 04:17:33 PM 41.7494 -108.9022 128° Southeast 478 550 27,000  Level Salt Lake Center
Tue 04:18:34 PM 41.6717 -108.7692 128° Southeast 472 543 27,000  Level Salt Lake Center
Tue 04:19:36 PM 41.5947 -108.6381 128° Southeast 467 537 27,000  Level Salt Lake Center
Tue 04:20:37 PM 41.5036 -108.4864 129° Southeast 466 536 27,000  Level Salt Lake Center
Tue 04:21:39 PM 41.4269 -108.3572 128° Southeast 464 534 27,000  Level Salt Lake Center
Tue 04:22:41 PM 41.3381 -108.2042 128° Southeast 467 537 27,000  Level Salt Lake Center
Tue 04:23:16 PM 41.3108 -108.1300 116° Southeast 459 528 27,000  Level Denver Center
Tue 04:23:42 PM 41.2647 -108.0767 139° Southeast 462 532 27,000  Level Salt Lake Center
Tue 04:24:44 PM 41.1633 -107.9853 146° Southeast 460 529 27,000  Level Salt Lake Center
Tue 04:25:19 PM 41.0956 -107.9225 145° Southeast 460 529 27,000  Level Denver Center
Tue 04:27:23 PM 40.8531 -107.7986 159° South 457 526 27,000  Level Denver Center
Tue 04:28:25 PM 40.8053 -107.6539 114° Southeast 454 522 27,000  Level Denver Center
Tue 04:29:26 PM 40.7703 -107.4719 104° East 459 528 27,000  Level Denver Center
Tue 04:30:28 PM 40.7403 -107.3119 104° East 460 529 27,000  Level Denver Center
Tue 04:31:30 PM 40.7067 -107.1469 105° East 461 531 27,000  Level Denver Center
Tue 04:32:32 PM 40.6753 -106.9811 104° East 463 533 27,000  Level Denver Center
Tue 04:33:33 PM 40.6417 -106.8164 105° East 464 534 27,000  Level Denver Center
Tue 04:34:35 PM 40.6089 -106.6506 105° East 465 535 27,000  Level Denver Center
Tue 04:35:37 PM 40.5728 -106.4736 105° East 463 533 27,000 -145 Level Denver Center
Tue 04:36:39 PM 40.5350 -106.2903 105° East 465 535 26,700 -683 Descending Denver Center
Tue 04:37:40 PM 40.5047 -106.1392 105° East 457 526 25,600 -1,073 Descending Denver Center
Tue 04:38:42 PM 40.4744 -105.9931 105° East 415 478 24,500 -1,016 Descending Denver Center
Tue 04:39:44 PM 40.4447 -105.8575 106° East 385 443 23,500 -1,016 Descending Denver Center
Tue 04:40:46 PM 40.4114 -105.7014 106° East 379 436 22,400 -976 Descending Denver Center
Tue 04:41:47 PM 40.3836 -105.5706 106° East 371 427 21,500 -976 Descending Denver Center
Tue 04:42:49 PM 40.3550 -105.4381 106° East 369 425 20,400 -1,303 Descending Denver Center
Tue 04:45:05 PM 40.2167 -105.2167 129° Southeast 337 388 17,200 -1,492 Descending Denver TRACON
Tue 04:46:06 PM 40.1667 -105.1333 128° Southeast 335 386 15,500 -1,289 Descending Denver TRACON
Tue 04:47:06 PM 40.1000 -105.0333 131° Southeast 321 369 14,600 -850 Descending Denver TRACON
Tue 04:48:06 PM 40.0500 -104.9500 128° Southeast 317 365 13,800 -800 Descending Denver TRACON
Tue 04:49:06 PM 39.9833 -104.8667 136° Southeast 321 369 13,000 -952 Descending Denver TRACON
Tue 04:50:12 PM 39.9000 -104.8000 148° Southeast 306 352 11,800 -857 Descending Denver TRACON
Tue 04:51:12 PM 39.8167 -104.8167 189° South 276 318 11,200 -450 Descending Denver TRACON
Tue 04:52:12 PM 39.7500 -104.8167 180° South 234 269 10,900 -619 Descending Denver TRACON
Tue 04:53:18 PM 39.6833 -104.8167 180° South 225 259 9,900 -905 Descending Denver TRACON
Tue 04:54:18 PM 39.6333 -104.8000 166° South 230 265 9,000 -448 Descending Denver TRACON
Tue 04:56:12 PM 39.6500 -104.7000 78° East 196 226 8,600 -310 Descending Denver TRACON
Tue 04:57:12 PM 39.7000 -104.6667 27° Northeast 187 215 8,100 -800 Descending Denver TRACON
Tue 04:58:12 PM 39.7500 -104.6667 360° North 181 208 7,000 -950 Descending Denver TRACON
Tue 04:59:12 PM 39.8000 -104.6667 360° North 142 163 6,200 -800 Descending Denver TRACON

Login

Don't have an account? Register now (free) for customized features, flight alerts, and more!